Dernières infos :  

11/11/2018  Mise à jour des tableaux d'analyses décadaires : rubrique climatologie
04/1/2018 Mise en ligne de la synthèse climatologique d'OCTOBRE 2018 : 
CLIQUEZ ICI
2/11/2018  Mise à jour des tableaux d'analyses décadaires, mensuelles et annuelles : rubrique climatologie   

Si l'entête du tableau ne s'affiche pas correctement, => actualisez la page (F5 avec Internet Explorer, Chrome...).
Utilisez l'ascenseur sur la droite des lignes du tableau pour faire défiler verticalement les jours du mois.

TABLEAU DES DONNEES COMPLETES NOAA de JUILLET 2018

DATE TEMPERATURE
sous abri
TEMPARATURE 
au sol
VENT  et  Indice de Refroidissement Eolien  PRECIPITATIONS (en mm/m2)
et Intensité
PRESSION ATMOSPHERIQUE (en hPa) HUMIDITE de l'AIR RADIATIONS SOLAIRES (en W/m2)
Mini Moy. Maxi Mini Moy. Maxi Moyen Rafale I.R.E.
Minii
Précip. jour Cumul mois Intensité Maxi Mini Moy. Maxi Mini Moy. Maxi Pic maxi du jour Total jour
01/07/18 17.9° 26.7° 35.3° 15° 26° 38.3° 3.5km/h dir SSE 17.7km/h dir S 17.9° 0 0 1006.1 1007.8 1009.2 30% 60.1% 90% 860 88 227
02/07/18 19.4° 26.6° 31.9° 15.6° 26.5° 35.6° 5.8km/h dir SSE 30.6km/h dir SSE 19.4° 0 0 1007.1 1009.4 1012 42% 55% 72% 953 86 676
03/07/18 18.3° 23.2° 30.2° 17.8° 23.8° 35.6° 5.3km/h dir SSE 33.8km/h dir N 18.4° 1 1 1mm/h 1011.3 1013.9 1015.6 50% 73.8% 93% 933 64 101
04/07/18 15.8° 23.5° 32.1° 14.4° 23.9° 36.7° 4.3km/h dir SE 27.4km/h dir ONO 15.8° 2.6 3.6 3.2mm/h 1009.9 1014 1016.1 39% 69.5% 95% 1011 71 940
05/07/18 16.6° 19.1° 24.6° 16.1° 19.6° 29.4° 3.9km/h dir S 29km/h dir SO 16.7° 10.6 14.2 57.8mm/h 1012.3 1015.3 1017.3 61% 85.8% 95% 1241 48 983
06/07/18 16.7° 20.3° 25.8° 15.6° 21° 31.1° 3.9km/h dir SE 30.6km/h dir O 16.7° 5.8 20 14.2mm/h 1017.2 1018.8 1020.3 63% 83.8% 96% 1102 55 897
07/07/18 14.6° 22.3° 29.1° 13.3° 22.7° 32.2° 8.4km/h dir ONO 35.4km/h dir ONO 14.6° 0.2 20.2 1017.6 1019 1020.1 40% 70.5% 96% 877 89 437
08/07/18 16.6° 22.8° 28.6° 15° 22.8° 32.2° 9.3km/h dir ONO 33.8km/h dir N 16.6° 0 20.2 1017.7 1018.6 1019.4 41% 64.1% 88% 872 88 571
09/07/18 14.3° 22.2° 29.3° 12.2° 22° 32.8° 7.2km/h dir ONO 35.4km/h dir O 14.3° 0 20.2 1015.7 1017.2 1018.4 34% 61% 89% 881 90 713
10/07/18 15.1° 21.7° 27.9° 12.8° 22.2° 32.2° 8.4km/h dir ONO 29km/h dir N 15.1° 0 20.2 1014.1 1015.5 1016.4 39% 62.2% 85% 1021 88 161
11/07/18 11.9° 18.9° 24.5° 10.6° 19.4° 28.9° 10.5km/h dir ONO 37km/h dir N 11.9° 0 20.2 1014.4 1015.3 1016 47% 62.1% 83% 1011 91 252
12/07/18 10.6° 19.5° 28.2° 8.3° 19.5° 33.3° 3.7km/h dir O 19.3km/h dir ONO 10.6° 0 20.2 1014.8 1015.6 1016.5 37% 65.9% 93% 940 86 693
13/07/18 12.3° 22° 30.8° 10.6° 22.3° 35° 3.2km/h dir O 17.7km/h dir N 12.3° 0 20.2 1015.5 1016.8 1018 37% 64.4% 93% 872 85 991
14/07/18 15.8° 23.4° 31.3° 14.4° 23.3° 35° 3.7km/h dir ONO 19.3km/h dir ONO 15.8° 0 20.2 1013.7 1015.5 1016.8 37% 64.8% 90% 1067 61 100
15/07/18 15.7° 21.7° 31.7° 13.9° 22.1° 36.1° 5.6km/h dir ESE 64.4km/h dir ONO 15.1° 24.6 44.8 129.4mm/h 1010.8 1013.6 1015.1 39% 74.9% 95% 963 74 611
16/07/18 14.4° 22° 30.1° 13.3° 22.7° 32.8° 6.6km/h dir ONO 32.2km/h dir ONO 14.4° 0.2 45 1008.5 1011.5 1014.3 37% 71.9% 96% 881 89 155
17/07/18 16.2° 22.6° 28.9° 15° 22.8° 32.2° 5.3km/h dir ONO 24.1km/h dir O 16.2° 0 45 1013.3 1015.6 1016.8 49% 69.5% 93% 872 86 014
18/07/18 13.9° 22.3° 29.9° 12.2° 22.4° 32.8° 4km/h dir ONO 20.9km/h dir O 13.9° 0 45 1012.8 1015.2 1017.1 34% 66% 94% 889 88 153
19/07/18 14.4° 23.4° 31.4° 12.8° 23.3° 35° 3.4km/h dir SE 19.3km/h dir O 14.4° 0 45 1011.8 1013.6 1014.7 39% 64.1% 90% 865 86 737
20/07/18 16.5° 21.4° 29.3° 14.4° 21.4° 33.9° 5km/h dir ESE 35.4km/h dir SO 16.4° 1.4 46.4 1.6mm/h 1009.7 1012.1 1013.8 51% 78.3% 92% 1056 48 648
21/07/18 16.8° 20.9° 26.6° 15.6° 21.5° 30.6° 4km/h dir ONO 20.9km/h dir O 16.8° 0.6 47 1011.3 1012.5 1013.6 45% 76% 95% 1102 64 814
22/07/18 13.9° 21.3° 27.9° 12.8° 21.7° 31.1° 6.9km/h dir ONO 30.6km/h dir N 13.9° 0 47 1012.2 1013.6 1014.4 39% 67.8% 94% 889 86 120
23/07/18 14.4° 23° 30.3° 12.8° 23.1° 33.3° 6.8km/h dir ONO 38.6km/h dir ONO 14.4° 0 47 1012.4 1014.2 1015.7 39% 65.2% 93% 854 83 358
24/07/18 14.8° 24.1° 32.7° 13.3° 24.1° 36.1° 2.9km/h dir SE 16.1km/h dir S 14.8° 0 47 1010.4 1011.8 1012.8 34% 65.3% 93% 863 83 607
25/07/18 16.9° 25.6° 33.6° 15.6° 25.7° 37.2° 5km/h dir ESE 24.1km/h dir N 17° 0 47 1010.9 1012.2 1013.8 37% 64.6% 91% 877 83 611
26/07/18 17.3° 26.3° 34.9° 15.6° 26.3° 37.8° 3.7km/h dir ONO 22.5km/h dir N 17.3° 0 47 1008.3 1010.5 1011.9 37% 65% 94% 844 83 217
27/07/18 17.7° 26.9° 35.8° 16.1° 26.7° 39.4° 3.4km/h dir E 16.1km/h dir O 17.7° 0 47 1006.7 1009 1010.6 27% 59.4% 90% 865 76 673
28/07/18 19.9° 23° 26.8° 18.3° 22.7° 30.6° 3.1km/h dir SO 14.5km/h dir E 20.1° 11.6 58.6 59.4mm/h 1007.2 1011.2 1014 62% 78.8% 94% 1067 38 589
29/07/18 16.3° 23.8° 31.8° 15.6° 23.9° 35° 2.9km/h dir ESE 17.7km/h dir SO 16.3° 0 58.6 1011.7 1013 1014.2 35% 72.1% 96% 863 81 001
30/07/18 17.1° 24.8° 32.2° 16.1° 24.9° 35° 4.3km/h dir E 20.9km/h dir NNE 17.1° 0 58.6 1012.7 1014 1015.3 45% 69.2% 93% 895 77 147
31/07/18 18.2° 26.1° 33.7° 16.7° 26.2° 36.7° 4.8km/h dir ONO 24.1km/h dir ONO 18.2° 0 58.6 1013.2 1014.5 1016.1 44% 67.9% 94% 846 79 570

RETOUR ACCUEIL


Date de création : 01/08/2018 : 07:57
Catégorie : ANNEE 2018 - MOIS PASSES - JUILLET 2018
Page lue 159 fois


Réactions à cet article

Personne n'a encore laissé de commentaire.
Soyez donc le premier !